Time;durP1;ratioP1;P1;durP2;ratioP2;P2;SDS_P1;SDS_P2;PMS_P1;PMS_P2;Temp;Humidity;BMP_temperature;BMP_pressure;BME280_temperature;BME280_humidity;BME280_pressure;Samples;Min_cycle;Max_cycle;Signal;HPM_P1;HPM_P2
2023/10/28 00:00:45;;;;;;;7.27;2.07;;;;;;;19.44;98.33;94636.50;5000432;28;20033;-88
2023/10/28 00:03:11;;;;;;;5.80;1.80;;;;;;;19.71;99.60;94631.97;4999852;28;20068;-88
2023/10/28 00:05:37;;;;;;;4.90;1.60;;;;;;;20.01;98.11;94628.69;5000405;28;20034;-88
2023/10/28 00:08:03;;;;;;;6.33;1.73;;;;;;;19.85;96.65;94632.34;5017016;28;20036;-88
2023/10/28 00:10:33;;;;;;;4.80;1.60;;;;;;;19.64;100.00;94630.56;4991310;28;20029;-88
2023/10/28 00:13:01;;;;;;;3.77;1.47;;;;;;;19.74;92.62;94635.97;5009764;28;20057;-87
2023/10/28 00:15:32;;;;;;;2.67;1.40;;;;;;;19.43;97.12;94646.38;4992245;28;20377;-87
2023/10/28 00:17:58;;;;;;;2.73;1.30;;;;;;;19.74;96.06;94635.97;5006582;28;20481;-88
2023/10/28 00:20:23;;;;;;;9.03;3.90;;;;;;;19.27;96.74;94640.09;4980262;28;20025;-87
2023/10/28 00:22:53;;;;;;;5.70;1.60;;;;;;;19.76;97.37;94639.22;4988435;28;20396;-88
2023/10/28 00:25:54;;;;;;;8.27;3.03;;;;;;;19.67;89.91;94635.41;5012596;28;20033;-89
2023/10/28 00:28:20;;;;;;;6.60;1.63;;;;;;;20.38;90.92;94635.84;5018881;28;20108;-88
2023/10/28 00:30:47;;;;;;;2.30;0.97;;;;;;;19.30;95.62;94638.78;5011566;28;20488;-89
2023/10/28 00:33:13;;;;;;;5.60;0.90;;;;;;;18.88;99.20;94634.13;5005709;28;20030;-89
2023/10/28 00:35:44;;;;;;;2.53;0.90;;;;;;;19.38;94.63;94634.84;4997549;28;20025;-88
2023/10/28 00:38:09;;;;;;;2.43;0.93;;;;;;;18.68;100.00;94652.47;4996488;28;20485;-88
2023/10/28 00:40:35;;;;;;;2.73;0.70;;;;;;;18.66;99.10;94651.94;5030695;28;20044;-89
2023/10/28 00:43:01;;;;;;;3.53;0.90;;;;;;;19.10;97.56;94642.06;5023905;28;20481;-88
2023/10/28 00:45:30;;;;;;;1.23;0.63;;;;;;;18.86;96.75;94646.88;5011939;28;20060;-87
2023/10/28 00:47:57;;;;;;;1.57;0.43;;;;;;;18.68;95.62;94644.50;4995510;28;20033;-89
2023/10/28 00:50:23;;;;;;;1.43;0.53;;;;;;;18.96;94.26;94641.66;4970882;28;20030;-87
2023/10/28 00:52:53;;;;;;;2.87;0.50;;;;;;;18.80;99.06;94647.88;4979234;28;20499;-88
2023/10/28 00:55:21;;;;;;;1.77;1.00;;;;;;;18.89;97.04;94645.56;4981108;28;20033;-88
2023/10/28 00:57:47;;;;;;;1.50;0.47;;;;;;;18.58;98.13;94651.31;5000606;28;20056;-88
2023/10/28 01:00:14;;;;;;;2.33;0.50;;;;;;;18.81;94.87;94660.13;5002236;28;20477;-88
2023/10/28 01:02:45;;;;;;;1.10;0.60;;;;;;;18.98;96.11;94652.88;4994767;28;20040;-88
2023/10/28 01:05:13;;;;;;;1.67;0.50;;;;;;;18.87;96.71;94648.47;4992695;28;20034;-88
2023/10/28 01:07:41;;;;;;;1.80;0.60;;;;;;;19.02;95.14;94650.50;5003292;28;20053;-88
2023/10/28 01:10:08;;;;;;;2.07;1.10;;;;;;;19.07;95.25;94658.53;4994757;28;20072;-88
2023/10/28 01:12:37;;;;;;;1.47;0.53;;;;;;;18.65;98.04;94655.66;4987380;28;20030;-88
2023/10/28 01:15:05;;;;;;;0.90;0.50;;;;;;;18.92;89.96;94661.06;4998204;28;20088;-89
2023/10/28 01:17:31;;;;;;;1.90;0.50;;;;;;;18.78;96.05;94655.31;5026036;28;20045;-88
2023/10/28 01:19:57;;;;;;;3.40;0.33;;;;;;;19.46;88.59;94656.53;5014380;28;20029;-88
2023/10/28 01:22:26;;;;;;;0.63;0.20;;;;;;;19.29;90.20;94655.84;5003694;28;20075;-88
2023/10/28 01:24:52;;;;;;;2.23;0.70;;;;;;;19.32;89.01;94666.00;4996526;28;20396;-88
2023/10/28 01:27:19;;;;;;;1.10;0.70;;;;;;;18.63;94.82;94660.41;5013647;28;20037;-88
2023/10/28 01:29:51;;;;;;;1.33;0.30;;;;;;;19.03;92.95;94663.56;5021350;28;20056;-88
2023/10/28 01:32:16;;;;;;;2.00;0.40;;;;;;;18.88;91.35;94660.75;4993701;28;20091;-88
2023/10/28 01:34:50;;;;;;;0.40;0.20;;;;;;;19.55;90.32;94660.34;5015561;28;20422;-88
2023/10/28 01:37:19;;;;;;;;;;;;;;;19.19;87.56;94663.75;4995379;28;20014;-88
2023/10/28 01:39:50;;;;;;;2.30;0.40;;;;;;;19.21;88.04;94664.28;5011257;28;19917;-89
2023/10/28 01:42:16;;;;;;;4.07;0.50;;;;;;;19.05;92.47;94664.13;5006588;28;20028;-88
2023/10/28 01:44:42;;;;;;;3.27;0.40;;;;;;;19.26;89.25;94667.81;4989554;28;20701;-88
2023/10/28 01:47:08;;;;;;;2.83;0.63;;;;;;;19.37;86.83;94668.72;5012177;28;20022;-89
2023/10/28 01:49:36;;;;;;;1.37;0.53;;;;;;;18.98;88.90;94660.03;5010899;28;20130;-88
2023/10/28 01:52:04;;;;;;;2.60;0.73;;;;;;;18.67;93.56;94662.31;4989749;28;20014;-88
2023/10/28 01:54:30;;;;;;;1.47;0.50;;;;;;;18.42;91.82;94667.34;5004148;28;20070;-88
2023/10/28 01:56:57;;;;;;;2.80;0.30;;;;;;;18.75;91.64;94664.59;4985121;28;20026;-89
2023/10/28 01:59:27;;;;;;;1.80;0.50;;;;;;;18.77;89.29;94667.81;5006315;28;20017;-88
2023/10/28 02:01:53;;;;;;;1.60;0.50;;;;;;;19.38;82.92;94664.19;5014348;28;20097;-88
2023/10/28 02:04:19;;;;;;;2.23;0.63;;;;;;;19.52;85.98;94660.84;4999298;28;20065;-88
2023/10/28 02:06:44;;;;;;;2.83;0.60;;;;;;;18.98;89.60;94668.03;5004422;28;20112;-88
2023/10/28 02:09:11;;;;;;;1.80;0.60;;;;;;;18.30;91.94;94673.56;5007757;28;20038;-90
2023/10/28 02:11:39;;;;;;;0.83;0.33;;;;;;;18.64;89.79;94670.00;5029224;28;20030;-88
2023/10/28 02:14:09;;;;;;;0.70;0.50;;;;;;;18.96;89.05;94683.47;5011005;28;20018;-88
2023/10/28 02:16:36;;;;;;;0.80;0.40;;;;;;;18.43;93.05;94687.59;5022614;28;20025;-87
2023/10/28 02:19:03;;;;;;;2.90;0.43;;;;;;;18.13;92.25;94691.41;5009077;28;20025;-88
2023/10/28 02:21:29;;;;;;;2.60;0.60;;;;;;;18.85;91.16;94679.91;5006111;28;20055;-88
2023/10/28 02:23:54;;;;;;;0.77;0.37;;;;;;;18.44;93.02;94692.66;5003672;28;20072;-87
2023/10/28 02:26:20;;;;;;;2.20;0.50;;;;;;;18.28;91.30;94683.66;5008358;28;20024;-88
2023/10/28 02:28:45;;;;;;;2.43;0.60;;;;;;;18.28;93.87;94694.31;4998284;28;20110;-88
2023/10/28 02:31:11;;;;;;;3.93;0.40;;;;;;;18.36;93.98;94699.22;4989270;28;20477;-88
2023/10/28 02:33:54;;;;;;;3.03;0.80;;;;;;;19.03;91.15;94700.06;5011155;28;20048;-88
2023/10/28 02:36:20;;;;;;;2.78;0.90;;;;;;;18.61;88.09;94696.09;4995819;28;20477;-87
2023/10/28 02:38:45;;;;;;;3.67;0.60;;;;;;;18.46;88.81;94693.22;4998700;28;20030;-88
2023/10/28 02:41:13;;;;;;;1.10;0.40;;;;;;;19.49;81.52;94698.69;5009812;28;20112;-86
2023/10/28 02:43:39;;;;;;;2.37;0.50;;;;;;;19.22;87.54;94697.88;5021228;28;20093;-87
2023/10/28 02:46:06;;;;;;;2.20;0.60;;;;;;;19.59;78.89;94703.31;4993981;28;20639;-87
2023/10/28 02:48:32;;;;;;;2.70;0.80;;;;;;;19.41;83.12;94707.13;5007779;28;20646;-88
2023/10/28 02:51:07;;;;;;;1.30;0.40;;;;;;;18.56;90.65;94708.53;5004226;28;20033;-87
2023/10/28 02:53:33;;;;;;;3.27;0.73;;;;;;;19.31;86.20;94713.19;5021692;28;20444;-88
2023/10/28 02:56:03;;;;;;;3.23;0.60;;;;;;;18.95;86.76;94704.00;5008833;28;20033;-87
2023/10/28 02:58:29;;;;;;;2.37;0.50;;;;;;;19.11;87.21;94712.13;5000337;28;20036;-87
2023/10/28 03:00:57;;;;;;;5.27;0.60;;;;;;;19.16;85.69;94715.66;4995194;28;20136;-88
2023/10/28 03:03:23;;;;;;;7.30;0.77;;;;;;;19.13;85.60;94710.03;5006187;28;20022;-88
2023/10/28 03:05:52;;;;;;;3.70;0.70;;;;;;;19.16;86.98;94712.22;4996185;28;20362;-88
2023/10/28 03:08:19;;;;;;;4.47;1.03;;;;;;;18.67;89.28;94712.91;4980488;28;20018;-87
2023/10/28 03:10:44;;;;;;;5.67;1.10;;;;;;;18.97;87.65;94712.53;5005852;28;20033;-88
2023/10/28 03:13:10;;;;;;;7.00;1.10;;;;;;;19.30;83.76;94714.22;4997048;28;20030;-87
2023/10/28 03:15:36;;;;;;;1.87;0.50;;;;;;;18.61;87.38;94714.72;4997600;28;20025;-87
2023/10/28 03:18:03;;;;;;;3.37;0.60;;;;;;;18.09;92.78;94725.69;5014868;28;20025;-88
2023/10/28 03:20:29;;;;;;;5.67;1.00;;;;;;;18.66;84.97;94718.50;5001479;28;20511;-88
2023/10/28 03:22:55;;;;;;;3.97;0.80;;;;;;;18.24;90.95;94724.31;5003202;28;20025;-88
2023/10/28 03:25:21;;;;;;;2.27;0.50;;;;;;;18.58;89.03;94722.41;5018158;28;20022;-88
2023/10/28 03:27:46;;;;;;;3.50;0.57;;;;;;;18.04;92.50;94730.13;4987498;28;20044;-89
2023/10/28 03:30:12;;;;;;;4.77;1.27;;;;;;;18.29;89.90;94732.38;5011980;28;20030;-91
2023/10/28 03:32:47;;;;;;;4.33;1.13;;;;;;;18.52;86.25;94726.84;5006693;28;20045;-88
2023/10/28 03:35:13;;;;;;;3.70;0.73;;;;;;;18.39;87.14;94724.53;5021459;28;20391;-88
2023/10/28 03:37:39;;;;;;;5.33;0.80;;;;;;;18.21;91.91;94725.63;4982748;28;20117;-87
2023/10/28 03:40:05;;;;;;;6.10;1.30;;;;;;;18.32;92.98;94729.22;5005617;28;20473;-88
2023/10/28 03:42:31;;;;;;;6.13;2.23;;;;;;;18.27;91.62;94737.13;4971566;28;20578;-88
2023/10/28 03:44:59;;;;;;;5.33;0.70;;;;;;;18.42;88.87;94732.03;5020191;28;20017;-88
2023/10/28 03:47:25;;;;;;;5.60;0.90;;;;;;;18.42;96.14;94737.34;4996329;28;20018;-88
2023/10/28 03:49:50;;;;;;;4.53;1.07;;;;;;;18.63;90.99;94729.66;5012332;28;20072;-88
2023/10/28 03:52:16;;;;;;;3.73;0.80;;;;;;;18.85;85.44;94725.19;5012552;28;20029;-87
2023/10/28 03:54:43;;;;;;;5.37;1.00;;;;;;;19.09;88.26;94736.38;5012622;28;20024;-87
2023/10/28 03:57:09;;;;;;;4.67;0.77;;;;;;;19.46;79.61;94735.72;4995061;28;20474;-89
2023/10/28 03:59:35;;;;;;;4.50;1.17;;;;;;;19.27;84.02;94743.22;4996998;28;20025;-87
2023/10/28 04:02:03;;;;;;;4.17;0.83;;;;;;;19.13;82.94;94742.00;4988373;28;20092;-87
2023/10/28 04:04:29;;;;;;;3.50;0.93;;;;;;;19.15;83.08;94746.06;5004768;28;20032;-87
2023/10/28 04:06:55;;;;;;;3.07;0.80;;;;;;;19.19;85.48;94744.50;5001215;28;20493;-87
2023/10/28 04:09:21;;;;;;;8.20;1.13;;;;;;;19.29;80.56;94743.81;4986924;28;20017;-88
2023/10/28 04:11:47;;;;;;;4.07;1.20;;;;;;;19.21;84.36;94739.69;5003325;28;20018;-88
2023/10/28 04:14:16;;;;;;;4.93;1.60;;;;;;;19.33;82.04;94739.56;4980416;28;21295;-88
2023/10/28 04:16:42;;;;;;;5.40;1.20;;;;;;;18.73;89.62;94735.94;4985362;28;20083;-88
2023/10/28 04:19:07;;;;;;;7.63;1.80;;;;;;;19.56;78.11;94733.16;4999963;28;20061;-87
2023/10/28 04:21:33;;;;;;;5.57;1.10;;;;;;;20.38;73.42;94729.28;5001755;28;20021;-87
2023/10/28 04:23:59;;;;;;;2.93;0.87;;;;;;;20.01;74.45;94732.75;5021817;28;20034;-87
2023/10/28 04:26:24;;;;;;;8.77;1.20;;;;;;;19.44;78.09;94733.28;5001974;28;20053;-87
2023/10/28 04:28:50;;;;;;;4.37;1.10;;;;;;;18.92;83.26;94736.44;4970399;28;20045;-88
2023/10/28 04:31:15;;;;;;;4.30;1.20;;;;;;;19.13;79.43;94739.34;4982253;28;20021;-88
2023/10/28 04:33:41;;;;;;;6.13;1.37;;;;;;;18.88;84.35;94731.84;4993550;28;20059;-88
2023/10/28 04:36:10;;;;;;;6.30;1.50;;;;;;;19.14;87.30;94741.75;5010236;28;20045;-86
2023/10/28 04:38:39;;;;;;;9.70;1.57;;;;;;;19.00;87.05;94744.00;5004329;28;20116;-86
2023/10/28 04:41:04;;;;;;;5.30;1.20;;;;;;;19.21;84.74;94744.22;5004003;28;20033;-87
2023/10/28 04:43:30;;;;;;;8.37;1.13;;;;;;;18.92;84.80;94739.13;4993390;28;20129;-87
2023/10/28 04:45:55;;;;;;;5.90;1.07;;;;;;;18.89;84.76;94736.94;5001259;28;20022;-87
2023/10/28 04:48:21;;;;;;;7.13;1.37;;;;;;;19.26;80.52;94731.78;5003287;28;20029;-87
2023/10/28 04:50:48;;;;;;;5.67;1.47;;;;;;;19.65;80.08;94737.00;5006578;28;20025;-87
2023/10/28 04:53:14;;;;;;;6.37;1.20;;;;;;;19.01;84.23;94739.47;4992907;28;20053;-86
2023/10/28 04:55:41;;;;;;;4.37;0.90;;;;;;;18.95;83.03;94743.94;5011169;28;20026;-87
2023/10/28 04:58:08;;;;;;;10.57;1.73;;;;;;;19.18;83.27;94732.22;5009741;28;20053;-87
2023/10/28 05:00:33;;;;;;;7.10;1.43;;;;;;;19.23;79.42;94742.13;4981880;28;20038;-87
2023/10/28 05:03:03;;;;;;;5.83;1.40;;;;;;;19.38;80.58;94736.94;5002687;28;20463;-87
2023/10/28 05:05:29;;;;;;;8.27;1.37;;;;;;;19.89;76.86;94734.81;5012356;28;20105;-90
2023/10/28 05:07:55;;;;;;;3.07;0.97;;;;;;;19.45;78.74;94734.09;5006501;28;20006;-89
2023/10/28 05:10:21;;;;;;;7.13;1.60;;;;;;;19.46;80.41;94741.84;5046805;28;20045;-90
2023/10/28 05:12:47;;;;;;;7.93;1.20;;;;;;;19.10;82.13;94742.50;5036726;28;20017;-87
2023/10/28 05:15:13;;;;;;;6.00;1.80;;;;;;;19.15;82.20;94750.53;4995099;28;20022;-87
2023/10/28 05:17:48;;;;;;;7.03;1.77;;;;;;;18.99;83.08;94747.72;5004854;28;20057;-87
2023/10/28 05:20:14;;;;;;;7.60;1.40;;;;;;;19.10;80.59;94747.84;4986861;28;20061;-87
2023/10/28 05:22:41;;;;;;;8.13;1.33;;;;;;;18.96;81.90;94756.22;4996197;28;20025;-87
2023/10/28 05:25:08;;;;;;;8.20;1.20;;;;;;;19.28;79.44;94755.50;5003034;28;20021;-87
2023/10/28 05:27:36;;;;;;;6.73;1.00;;;;;;;19.33;78.61;94758.22;5007639;28;20025;-87
2023/10/28 05:30:17;;;;;;;13.37;1.63;;;;;;;19.76;74.54;94757.38;5009492;28;20522;-87
2023/10/28 05:32:42;;;;;;;5.20;1.40;;;;;;;18.84;84.70;94758.16;5024615;28;20045;-90
2023/10/28 05:35:10;;;;;;;4.87;1.13;;;;;;;18.86;84.28;94764.06;5001859;28;20069;-89
2023/10/28 05:37:36;;;;;;;7.17;1.40;;;;;;;18.55;88.99;94770.81;5008562;28;20045;-87
2023/10/28 05:40:02;;;;;;;7.57;1.17;;;;;;;17.88;92.33;94763.66;5023380;28;20026;-87
2023/10/28 05:42:28;;;;;;;6.67;1.40;;;;;;;18.37;88.59;94763.88;4999565;28;20033;-87
2023/10/28 05:44:54;;;;;;;3.93;1.40;;;;;;;18.66;83.91;94767.22;5007647;28;20025;-86
2023/10/28 05:47:38;;;;;;;5.40;1.37;;;;;;;18.48;85.88;94781.63;5003547;28;20030;-87
2023/10/28 05:50:07;;;;;;;6.23;1.30;;;;;;;18.33;84.40;94776.06;4991573;28;20088;-86
2023/10/28 05:52:34;;;;;;;6.07;1.10;;;;;;;18.71;84.79;94771.81;5024948;28;20484;-86
2023/10/28 05:55:01;;;;;;;7.43;1.70;;;;;;;18.76;84.59;94770.06;5014803;28;20026;-86
2023/10/28 05:57:27;;;;;;;4.37;1.37;;;;;;;18.69;81.85;94779.25;5009979;28;20029;-86
2023/10/28 05:59:52;;;;;;;7.60;1.80;;;;;;;18.35;83.30;94774.78;5008717;28;20030;-87
2023/10/28 06:02:18;;;;;;;6.00;1.60;;;;;;;18.90;80.90;94773.16;4982602;28;20105;-87
2023/10/28 06:04:43;;;;;;;8.70;1.87;;;;;;;18.66;82.59;94785.88;5001834;28;20021;-88
2023/10/28 06:07:09;;;;;;;6.57;1.47;;;;;;;18.50;83.40;94781.38;5024118;28;20497;-87
2023/10/28 06:09:35;;;;;;;6.43;1.43;;;;;;;18.66;81.36;94774.41;5006433;28;20021;-86
2023/10/28 06:12:00;;;;;;;6.00;1.40;;;;;;;18.60;81.03;94782.31;4995815;28;20036;-87
2023/10/28 06:14:26;;;;;;;4.50;1.10;;;;;;;18.91;83.01;94779.31;5004240;28;20473;-87
2023/10/28 06:16:51;;;;;;;6.23;1.37;;;;;;;18.52;82.66;94784.63;5014323;28;20021;-87
2023/10/28 06:19:21;;;;;;;5.33;1.13;;;;;;;19.04;77.76;94779.72;4999903;28;20021;-87
2023/10/28 06:21:48;;;;;;;10.27;2.37;;;;;;;18.60;81.35;94790.31;5006394;28;20838;-87
2023/10/28 06:24:13;;;;;;;7.87;3.80;;;;;;;18.32;85.59;94790.44;4989521;28;20030;-87
2023/10/28 06:26:39;;;;;;;10.33;3.90;;;;;;;18.12;85.41;94794.38;5015590;28;20117;-87
2023/10/28 06:29:05;;;;;;;4.97;2.20;;;;;;;18.51;85.71;94802.44;5026229;28;20049;-87
2023/10/28 06:31:32;;;;;;;5.03;1.70;;;;;;;17.90;88.97;94799.59;4982701;28;20089;-87
2023/10/28 06:34:00;;;;;;;5.47;1.60;;;;;;;18.04;85.80;94800.13;4985210;28;20525;-88
2023/10/28 06:36:28;;;;;;;5.00;2.30;;;;;;;18.55;82.62;94792.91;5013915;28;20092;-86
2023/10/28 06:38:57;;;;;;;8.77;2.40;;;;;;;18.47;85.32;94803.16;5021656;28;20041;-87
2023/10/28 06:41:22;;;;;;;5.47;1.17;;;;;;;18.69;79.57;94805.88;5018092;28;20504;-86
2023/10/28 06:44:08;;;;;;;5.77;1.77;;;;;;;18.94;78.62;94803.59;5015755;28;20041;-86
2023/10/28 06:46:56;;;;;;;4.30;1.37;;;;;;;19.26;75.59;94803.75;5030999;28;20481;-87
2023/10/28 06:49:22;;;;;;;7.47;1.67;;;;;;;19.29;75.66;94807.78;5001081;28;20105;-86
2023/10/28 06:51:47;;;;;;;5.03;1.77;;;;;;;18.97;75.93;94811.09;5022114;28;20018;-87
2023/10/28 06:54:13;;;;;;;6.83;2.30;;;;;;;19.29;73.66;94805.91;5013477;28;20049;-87
2023/10/28 06:56:39;;;;;;;7.37;2.27;;;;;;;19.67;70.08;94806.09;5015150;28;20392;-87
2023/10/28 06:59:23;;;;;;;5.13;2.27;;;;;;;20.55;67.01;94808.47;4979236;28;20026;-87
2023/10/28 07:01:49;;;;;;;7.40;2.43;;;;;;;19.68;69.00;94813.03;5006678;28;20021;-87
2023/10/28 07:04:15;;;;;;;6.00;1.77;;;;;;;19.15;73.96;94814.50;4995425;28;20117;-87
2023/10/28 07:06:41;;;;;;;5.70;1.67;;;;;;;19.83;71.90;94812.38;5005566;28;20065;-87
2023/10/28 07:09:07;;;;;;;7.60;1.87;;;;;;;19.79;72.35;94814.75;4987931;28;20075;-86
2023/10/28 07:11:32;;;;;;;3.97;1.33;;;;;;;19.10;71.42;94817.13;5017232;28;20029;-87
2023/10/28 07:13:58;;;;;;;4.27;1.23;;;;;;;18.84;74.03;94827.41;4983969;28;20018;-87
2023/10/28 07:16:24;;;;;;;7.23;1.17;;;;;;;18.94;74.84;94827.56;4985556;28;20108;-87
2023/10/28 07:18:49;;;;;;;7.43;1.20;;;;;;;19.17;76.31;94831.06;5014930;28;20037;-87
2023/10/28 07:21:15;;;;;;;6.67;1.50;;;;;;;19.18;72.76;94844.16;5011466;28;20088;-89
2023/10/28 07:23:41;;;;;;;5.27;1.20;;;;;;;18.82;77.70;94845.53;5008186;28;20117;-90
2023/10/28 07:26:06;;;;;;;3.43;1.03;;;;;;;19.36;77.03;94843.03;5007567;28;20026;-89
2023/10/28 07:28:37;;;;;;;4.17;1.13;;;;;;;19.19;74.15;94852.94;5030746;28;20048;-89
2023/10/28 07:31:03;;;;;;;5.03;1.43;;;;;;;19.34;77.71;94839.81;5008348;28;20025;-89
2023/10/28 07:33:29;;;;;;;10.27;2.70;;;;;;;20.71;66.87;94847.59;4989395;28;20079;-90
2023/10/28 07:35:54;;;;;;;4.00;1.40;;;;;;;20.45;64.67;94852.69;4982490;28;20085;-89
2023/10/28 07:38:20;;;;;;;6.87;1.27;;;;;;;20.68;65.79;94848.09;5014571;28;20040;-89
2023/10/28 07:41:08;;;;;;;4.23;1.00;;;;;;;20.29;64.79;94856.31;5005890;28;20030;-88
2023/10/28 07:43:34;;;;;;;4.40;1.27;;;;;;;19.80;68.89;94853.69;5030232;28;20624;-89
2023/10/28 07:46:11;;;;;;;5.90;1.10;;;;;;;21.15;59.93;94852.69;5001453;28;20061;-89
2023/10/28 07:52:35;;;;;;;3.67;1.00;;;;;;;22.57;53.10;94855.00;4971674;28;20050;-90
2023/10/28 07:55:25;;;;;;;4.87;1.20;;;;;;;22.59;51.17;94863.56;4971624;28;20486;-89
2023/10/28 08:01:32;;;;;;;5.40;0.80;;;;;;;23.10;48.86;94857.38;5002933;28;20037;-89
2023/10/28 08:03:58;;;;;;;4.40;1.07;;;;;;;23.93;48.06;94858.72;5032741;22;20053;-82
2023/10/28 08:06:24;;;;;;;4.77;1.10;;;;;;;23.59;46.78;94867.44;4963713;28;20034;-83
2023/10/28 08:08:54;;;;;;;4.53;1.35;;;;;;;23.36;48.45;94863.47;4955768;28;20371;-83
2023/10/28 08:11:24;;;;;;;3.55;0.90;;;;;;;24.03;47.33;94864.03;4957662;28;20029;-83
2023/10/28 08:13:53;;;;;;;5.53;1.20;;;;;;;23.60;48.54;94869.03;4952820;28;20034;-85
2023/10/28 08:16:20;;;;;;;4.97;0.88;;;;;;;23.37;48.02;94869.66;4963762;28;20053;-84
2023/10/28 08:18:46;;;;;;;5.47;1.00;;;;;;;23.87;48.17;94863.31;4963919;28;20031;-83
2023/10/28 08:21:14;;;;;;;3.50;1.10;;;;;;;23.76;48.51;94862.56;4971909;28;20034;-82
2023/10/28 08:23:43;;;;;;;2.35;0.80;;;;;;;22.38;50.00;94874.56;4976936;28;20064;-82
2023/10/28 08:26:17;;;;;;;3.03;0.90;;;;;;;23.47;48.74;94880.34;4980015;28;20027;-82
2023/10/28 08:29:07;;;;;;;4.50;1.20;;;;;;;23.86;48.41;94879.69;4957657;28;20080;-82
2023/10/28 08:31:32;;;;;;;5.73;1.13;;;;;;;22.76;49.37;94887.41;4957851;28;20030;-82
2023/10/28 08:33:58;;;;;;;2.30;0.77;;;;;;;23.87;48.41;94882.09;4986607;28;20026;-82
2023/10/28 08:36:25;;;;;;;2.97;0.70;;;;;;;24.09;49.09;94892.47;4970905;28;20025;-82
2023/10/28 08:38:51;;;;;;;5.85;1.20;;;;;;;24.78;46.58;94889.88;4978970;28;20061;-82
2023/10/28 08:41:21;;;;;;;4.75;1.20;;;;;;;24.97;46.26;94888.09;4958591;28;20026;-82
2023/10/28 08:43:47;;;;;;;5.15;0.88;;;;;;;25.14;45.40;94891.19;4954023;28;20034;-82
2023/10/28 08:46:13;;;;;;;2.50;0.85;;;;;;;25.12;45.25;94897.97;4959757;28;20038;-82
2023/10/28 08:48:38;;;;;;;13.35;2.42;;;;;;;24.89;45.07;94904.84;4956974;28;20037;-82
2023/10/28 08:51:10;;;;;;;4.53;1.15;;;;;;;25.26;43.87;94903.47;4964015;28;20046;-82
2023/10/28 08:53:37;;;;;;;2.95;1.00;;;;;;;24.89;44.93;94908.34;4973044;28;20084;-82
2023/10/28 08:56:03;;;;;;;6.13;1.00;;;;;;;25.06;44.09;94907.94;4951252;28;20023;-82
2023/10/28 08:58:29;;;;;;;3.90;1.10;;;;;;;25.42;43.19;94906.81;4954892;28;20018;-82
2023/10/28 09:00:58;;;;;;;5.38;1.25;;;;;;;26.19;42.54;94901.34;4950060;28;20022;-82
2023/10/28 09:03:26;;;;;;;3.22;1.10;;;;;;;25.83;43.26;94899.13;4950163;28;20054;-83
2023/10/28 09:05:53;;;;;;;5.80;1.30;;;;;;;26.76;42.24;94896.75;4965323;28;20025;-83
2023/10/28 09:08:27;;;;;;;5.70;1.20;;;;;;;26.91;41.80;94896.50;4977751;28;20027;-83
2023/10/28 09:10:53;;;;;;;3.90;1.20;;;;;;;24.67;43.84;94906.09;4969011;28;22191;-83
2023/10/28 09:13:21;;;;;;;4.68;1.13;;;;;;;25.70;42.52;94897.88;4951226;28;20031;-83
2023/10/28 09:15:47;;;;;;;18.15;11.20;;;;;;;25.67;42.54;94900.34;4973131;28;20018;-85
2023/10/28 09:18:12;;;;;;;7.03;2.60;;;;;;;25.06;43.69;94905.25;4955046;28;20026;-83
2023/10/28 09:20:38;;;;;;;3.22;1.00;;;;;;;26.30;42.14;94892.03;4958045;28;20563;-82
2023/10/28 09:23:04;;;;;;;5.05;1.23;;;;;;;27.16;40.97;94899.91;4965205;28;20065;-84
2023/10/28 09:25:30;;;;;;;5.93;1.30;;;;;;;26.89;40.77;94898.69;4958477;28;20018;-82
2023/10/28 09:27:56;;;;;;;3.70;0.98;;;;;;;25.60;42.06;94895.31;4951179;28;20038;-83
2023/10/28 09:30:47;;;;;;;4.47;1.00;;;;;;;25.84;41.75;94898.81;4946818;28;20038;-83
2023/10/28 09:33:14;;;;;;;5.40;0.90;;;;;;;25.82;42.30;94902.88;4969558;28;20026;-83
2023/10/28 09:35:41;;;;;;;2.78;0.75;;;;;;;26.28;41.63;94903.09;4954806;28;20045;-82
2023/10/28 09:38:08;;;;;;;3.00;0.98;;;;;;;25.92;42.02;94910.03;4977843;28;20085;-83
2023/10/28 09:40:34;;;;;;;5.40;1.30;;;;;;;26.06;40.57;94898.28;4973178;28;20038;-84
2023/10/28 09:43:02;;;;;;;4.05;1.42;;;;;;;25.69;41.23;94898.97;4951784;28;20037;-83
2023/10/28 09:45:28;;;;;;;4.03;1.17;;;;;;;27.05;40.58;94899.25;4955782;28;20038;-83
2023/10/28 09:47:58;;;;;;;5.13;1.38;;;;;;;26.84;39.84;94903.41;4964718;28;20039;-84
2023/10/28 09:50:27;;;;;;;6.82;1.30;;;;;;;26.34;40.85;94901.13;4953096;28;20025;-84
2023/10/28 09:52:55;;;;;;;2.80;0.90;;;;;;;25.35;42.29;94893.69;4953000;28;20114;-83
2023/10/28 09:55:27;;;;;;;5.03;0.90;;;;;;;25.54;42.01;94910.72;4944180;28;20022;-83
2023/10/28 09:58:15;;;;;;;5.82;1.00;;;;;;;24.33;43.63;94913.28;4973254;28;20080;-83
2023/10/28 10:00:43;;;;;;;4.32;1.40;;;;;;;24.66;43.09;94906.38;4967691;28;20353;-83
2023/10/28 10:03:46;;;;;;;5.05;1.00;;;;;;;26.22;41.37;94903.44;4948386;28;20157;-83
2023/10/28 10:06:12;;;;;;;3.40;1.00;;;;;;;24.57;43.36;94903.47;4966493;28;20399;-84
2023/10/28 10:08:49;;;;;;;4.65;0.95;;;;;;;24.07;44.23;94904.56;4944608;28;20411;-82
2023/10/28 10:11:21;;;;;;;7.97;1.23;;;;;;;24.41;43.87;94928.84;4945907;28;20082;-83
2023/10/28 10:13:47;;;;;;;3.50;1.05;;;;;;;24.37;44.14;94915.13;4964449;28;20102;-83
2023/10/28 10:16:38;;;;;;;2.45;1.00;;;;;;;25.06;43.08;94915.22;4959811;28;20465;-81
2023/10/28 10:19:12;;;;;;;4.30;0.90;;;;;;;24.60;43.10;94910.97;4964292;28;20057;-82
2023/10/28 10:21:38;;;;;;;5.25;1.13;;;;;;;24.23;43.78;94917.63;4956991;28;20034;-83
2023/10/28 10:24:04;;;;;;;3.72;0.88;;;;;;;24.47;43.79;94914.28;4973669;28;20030;-83
2023/10/28 10:26:32;;;;;;;6.22;1.40;;;;;;;23.18;45.69;94925.75;4958918;28;20018;-83
2023/10/28 10:28:58;;;;;;;6.93;1.33;;;;;;;23.91;45.11;94917.25;4958522;28;20644;-83
2023/10/28 10:31:31;;;;;;;5.30;1.10;;;;;;;23.13;45.37;94923.06;4960236;28;20112;-82
2023/10/28 10:34:02;;;;;;;5.90;1.40;;;;;;;23.38;46.34;94904.25;4973089;28;20491;-82
2023/10/28 10:36:38;;;;;;;3.42;1.00;;;;;;;23.64;45.75;94912.22;4965924;28;20034;-82
2023/10/28 10:39:18;;;;;;;4.38;1.20;;;;;;;24.13;45.02;94911.53;4974296;28;20949;-83
2023/10/28 10:41:49;;;;;;;5.93;0.90;;;;;;;23.66;46.08;94926.19;4971702;28;20069;-82
2023/10/28 10:44:34;;;;;;;5.63;1.48;;;;;;;23.25;46.00;94929.78;4977684;28;20959;-82
2023/10/28 10:47:08;;;;;;;8.40;1.70;;;;;;;23.87;45.18;94929.63;4957329;28;22090;-82
2023/10/28 10:49:35;;;;;;;7.93;1.10;;;;;;;24.15;44.37;94917.44;4974647;28;20153;-83
2023/10/28 10:52:02;;;;;;;3.70;0.73;;;;;;;23.84;44.91;94932.84;4955995;28;20077;-83
2023/10/28 10:54:30;;;;;;;4.10;1.00;;;;;;;23.95;44.87;94934.44;4957399;28;20516;-83
2023/10/28 10:56:56;;;;;;;4.30;1.05;;;;;;;23.31;45.42;94946.66;4955184;28;20061;-83
2023/10/28 10:59:22;;;;;;;4.22;1.10;;;;;;;23.67;46.00;94955.41;4978131;28;20793;-83
2023/10/28 11:01:47;;;;;;;7.50;1.60;;;;;;;23.10;46.38;94961.94;4960075;28;20030;-83
2023/10/28 11:04:13;;;;;;;3.83;1.38;;;;;;;23.23;46.12;94953.38;4959996;28;20037;-82
2023/10/28 11:06:48;;;;;;;6.57;1.50;;;;;;;24.00;45.63;94954.00;4975588;28;20057;-82
2023/10/28 11:09:15;;;;;;;6.25;1.40;;;;;;;23.11;46.51;94955.53;4981933;28;20217;-79
2023/10/28 11:11:41;;;;;;;3.80;1.27;;;;;;;23.97;45.36;94943.81;4958983;28;20118;-79
2023/10/28 11:14:12;;;;;;;7.78;1.63;;;;;;;24.37;44.81;94947.38;4960759;28;20041;-80
2023/10/28 11:16:39;;;;;;;9.55;1.95;;;;;;;23.62;44.68;94951.97;4953560;28;20038;-80
2023/10/28 11:19:10;;;;;;;4.32;1.20;;;;;;;24.08;44.16;94944.59;4959855;28;20102;-81
2023/10/28 11:21:36;;;;;;;6.25;1.20;;;;;;;24.99;43.11;94942.44;4976818;28;20109;-80
2023/10/28 11:24:04;;;;;;;7.28;1.38;;;;;;;24.86;43.59;94943.06;4982383;28;20026;-81
2023/10/28 11:26:30;;;;;;;6.70;1.48;;;;;;;24.64;43.08;94941.59;4976120;28;20054;-81
2023/10/28 11:34:04;;;;;;;6.05;1.52;;;;;;;27.17;39.77;94933.91;5020039;28;20056;-79
2023/10/28 11:36:31;;;;;;;5.00;1.10;;;;;;;26.58;39.23;94932.63;5018205;28;20323;-81
2023/10/28 11:39:07;;;;;;;2.67;1.00;;;;;;;26.68;38.96;94935.97;5020772;28;20031;-80
2023/10/28 11:41:32;;;;;;;6.60;1.88;;;;;;;26.23;40.56;94929.31;5011683;28;20552;-80
2023/10/28 11:43:59;;;;;;;4.47;1.10;;;;;;;26.89;40.34;94922.97;5010443;28;20036;-79
2023/10/28 11:46:25;;;;;;;4.07;1.33;;;;;;;26.53;39.01;94925.44;5037667;28;20047;-79
2023/10/28 11:48:50;;;;;;;6.75;1.40;;;;;;;26.62;38.70;94925.56;5011891;28;20029;-79
2023/10/28 11:51:16;;;;;;;3.90;1.35;;;;;;;27.04;36.97;94919.25;5015366;28;20114;-80